createdAt,value
2022-08-09T00:02:33.951Z,3.13
2022-08-09T00:07:44.798Z,2.50
2022-08-09T00:12:51.659Z,2.90
2022-08-09T00:18:07.531Z,2.27
2022-08-09T00:23:54.747Z,2.43
2022-08-09T00:28:37.120Z,2.70
2022-08-09T00:33:50.699Z,3.17
2022-08-09T00:38:54.416Z,2.70
2022-08-09T00:44:11.382Z,2.77
2022-08-09T00:49:20.588Z,2.40
2022-08-09T00:54:31.476Z,2.93
2022-08-09T00:59:46.547Z,2.57
2022-08-09T01:05:00.658Z,2.80
2022-08-09T01:10:26.635Z,2.67
2022-08-09T01:15:40.992Z,2.87
2022-08-09T01:21:16.897Z,3.30
2022-08-09T01:26:36.971Z,2.60
2022-08-09T01:32:32.231Z,3.37
2022-08-09T01:37:06.769Z,2.50
2022-08-09T01:42:11.473Z,2.67
2022-08-09T01:47:17.532Z,3.00
2022-08-09T01:52:20.997Z,3.03
2022-08-09T01:57:29.384Z,2.87
2022-08-09T02:02:45.482Z,2.73
2022-08-09T02:08:38.531Z,2.60
2022-08-09T02:13:26.114Z,2.70
2022-08-09T02:18:42.799Z,2.73
2022-08-09T02:23:52.570Z,2.90
2022-08-09T02:29:00.467Z,2.93
2022-08-09T02:34:13.626Z,2.73
2022-08-09T02:39:39.705Z,2.93
2022-08-09T02:44:48.896Z,3.07
2022-08-09T02:50:05.432Z,2.80
2022-08-09T02:55:20.759Z,2.70
2022-08-09T03:00:26.289Z,3.10
2022-08-09T03:05:29.613Z,3.10
2022-08-09T03:10:38.804Z,2.40
2022-08-09T03:16:06.037Z,3.40
2022-08-09T03:21:06.535Z,3.10
2022-08-09T03:26:09.513Z,3.43
2022-08-09T03:31:21.310Z,3.10
2022-08-09T03:36:27.860Z,3.20
2022-08-09T03:41:45.905Z,3.27
2022-08-09T03:46:51.947Z,3.00
2022-08-09T03:52:00.313Z,3.20
2022-08-09T03:57:18.136Z,3.27
2022-08-09T04:02:29.581Z,3.47
2022-08-09T04:07:47.393Z,3.00
2022-08-09T04:12:55.503Z,3.23
2022-08-09T04:17:58.231Z,3.07
2022-08-09T04:23:02.054Z,3.43
2022-08-09T04:28:04.992Z,3.70
2022-08-09T04:33:08.371Z,3.30
2022-08-09T04:38:11.511Z,3.20
2022-08-09T04:43:17.230Z,3.33
2022-08-09T04:48:20.460Z,3.03
2022-08-09T04:53:23.167Z,3.20
2022-08-09T04:58:29.766Z,3.27
2022-08-09T05:03:42.983Z,2.83
2022-08-09T05:08:47.755Z,3.20
2022-08-09T05:13:50.834Z,3.23
2022-08-09T05:18:59.911Z,3.23
2022-08-09T05:24:04.638Z,3.47
2022-08-09T05:29:17.766Z,3.93
2022-08-09T05:34:29.810Z,3.80
2022-08-09T05:39:43.641Z,3.50
2022-08-09T05:44:47.792Z,3.73
2022-08-09T05:50:23.643Z,3.93
2022-08-09T05:55:21.350Z,3.13
2022-08-09T06:00:25.838Z,3.43
2022-08-09T06:05:58.178Z,3.17
2022-08-09T06:10:58.161Z,3.07
2022-08-09T06:16:01.720Z,3.43
2022-08-09T06:21:08.185Z,3.33
2022-08-09T06:26:19.927Z,2.90
2022-08-09T06:31:31.449Z,3.20
2022-08-09T06:36:42.885Z,2.80
2022-08-09T06:42:08.797Z,2.60
2022-08-09T06:47:09.807Z,2.87
2022-08-09T06:52:15.699Z,2.97
2022-08-09T06:57:18.754Z,3.60
2022-08-09T07:02:30.857Z,2.20
2022-08-09T07:07:59.832Z,3.08
2022-08-09T07:12:57.873Z,3.50
2022-08-09T07:18:02.470Z,2.53
2022-08-09T07:23:18.229Z,2.08
2022-08-09T07:28:26.232Z,2.10
2022-08-09T07:33:53.296Z,1.92
2022-08-09T07:39:00.990Z,1.92
2022-08-09T07:44:05.411Z,2.65
2022-08-09T07:49:08.205Z,1.42
2022-08-09T07:54:11.038Z,1.23
2022-08-09T07:59:24.918Z,1.30
2022-08-09T08:04:37.214Z,1.08
2022-08-09T08:09:51.790Z,1.15
2022-08-09T08:14:57.620Z,1.02
2022-08-09T08:20:02.369Z,1.23
2022-08-09T08:25:15.596Z,1.17
2022-08-09T08:30:18.591Z,2.28
2022-08-09T08:35:22.981Z,1.00
2022-08-09T08:40:25.779Z,1.25
2022-08-09T08:45:53.294Z,1.08
2022-08-09T08:50:56.522Z,1.00
2022-08-09T08:56:00.585Z,1.00
2022-08-09T09:01:08.910Z,1.13
2022-08-09T09:06:22.542Z,1.20
2022-08-09T09:11:27.297Z,1.10
2022-08-09T09:16:35.056Z,1.75
2022-08-09T09:21:58.061Z,1.25
2022-08-09T09:27:01.973Z,1.42
2022-08-09T09:32:15.468Z,1.20
2022-08-09T09:37:31.962Z,1.30
2022-08-09T09:42:35.531Z,0.90
2022-08-09T09:47:56.138Z,1.05
2022-08-09T09:53:00.977Z,0.90
2022-08-09T09:58:19.288Z,1.35
2022-08-09T10:03:57.238Z,1.17
2022-08-09T10:09:11.717Z,1.15
2022-08-09T10:14:31.726Z,1.10
2022-08-09T10:19:37.081Z,1.15
2022-08-09T10:24:40.638Z,1.80
2022-08-09T10:30:48.143Z,1.10
2022-08-09T10:35:06.672Z,2.10
2022-08-09T10:40:33.792Z,0.63
2022-08-09T10:45:42.317Z,1.20
2022-08-09T10:51:29.792Z,1.20
2022-08-09T10:56:44.383Z,1.15
2022-08-09T11:03:15.745Z,0.90
2022-08-09T11:07:10.032Z,0.90
2022-08-09T11:12:29.838Z,1.02
2022-08-09T11:17:34.261Z,1.20
2022-08-09T11:22:49.106Z,1.30
2022-08-09T11:28:05.168Z,1.10
2022-08-09T11:33:29.734Z,0.82
2022-08-09T11:38:34.878Z,1.13
2022-08-09T11:43:58.025Z,1.30
2022-08-09T11:49:05.288Z,1.27
2022-08-09T11:54:14.679Z,0.90
2022-08-09T11:59:33.206Z,1.20
2022-08-09T12:04:37.228Z,0.70
2022-08-09T12:09:50.291Z,1.25
2022-08-09T12:15:07.838Z,1.10
2022-08-09T12:20:21.983Z,1.10
2022-08-09T12:25:35.733Z,1.10
2022-08-09T12:30:40.746Z,1.20
2022-08-09T12:35:43.860Z,0.90
2022-08-09T12:40:48.572Z,1.10
2022-08-09T12:46:00.308Z,0.90
2022-08-09T12:51:04.501Z,0.90
2022-08-09T12:56:37.064Z,0.73
2022-08-09T13:01:48.801Z,1.13
2022-08-09T13:06:54.824Z,1.10
2022-08-09T13:12:05.078Z,1.00
2022-08-09T13:17:44.104Z,1.20
2022-08-09T13:23:01.085Z,1.00
2022-08-09T13:28:24.426Z,0.70
2022-08-09T13:33:53.109Z,1.10
2022-08-09T13:39:00.969Z,1.00
2022-08-09T13:44:07.009Z,1.85
2022-08-09T13:49:18.113Z,1.08
2022-08-09T13:54:21.212Z,0.98
2022-08-09T13:59:30.775Z,1.08
2022-08-09T14:04:47.472Z,1.40
2022-08-09T14:10:03.172Z,1.00
2022-08-09T14:16:06.857Z,1.05
2022-08-09T14:20:30.394Z,1.02
2022-08-09T14:25:43.113Z,0.93
2022-08-09T14:30:46.167Z,1.35
2022-08-09T14:35:52.697Z,0.93
2022-08-09T14:41:04.250Z,1.00
2022-08-09T14:46:55.762Z,1.38
2022-08-09T14:51:42.544Z,1.10
2022-08-09T14:56:57.484Z,1.00
2022-08-09T15:02:01.305Z,1.00
2022-08-09T15:07:05.423Z,1.17
2022-08-09T15:12:12.980Z,1.02
2022-08-09T15:17:15.790Z,1.10
2022-08-09T15:22:18.783Z,1.17
2022-08-09T15:27:24.743Z,1.13
2022-08-09T15:32:30.527Z,1.00
2022-08-09T15:37:57.092Z,1.10
2022-08-09T15:42:59.659Z,1.30
2022-08-09T15:48:07.878Z,1.23
2022-08-09T15:54:05.337Z,1.20
2022-08-09T15:58:48.597Z,1.27
2022-08-09T16:03:54.043Z,1.30
2022-08-09T16:09:00.953Z,1.40
2022-08-09T16:14:07.887Z,1.27
2022-08-09T16:19:13.485Z,1.23
2022-08-09T16:24:29.853Z,1.38
2022-08-09T16:29:50.687Z,1.38
2022-08-09T16:34:57.871Z,1.33
2022-08-09T16:40:02.749Z,1.50
2022-08-09T16:45:09.626Z,1.67
2022-08-09T16:50:32.462Z,1.33
2022-08-09T16:55:58.820Z,1.30
2022-08-09T17:00:58.590Z,1.30
2022-08-09T17:06:08.639Z,1.20
2022-08-09T17:11:32.984Z,1.50
2022-08-09T17:16:44.086Z,1.58
2022-08-09T17:21:47.385Z,1.45
2022-08-09T17:26:53.457Z,1.30
2022-08-09T17:31:58.227Z,1.55
2022-08-09T17:37:02.359Z,1.58
2022-08-09T17:42:05.655Z,1.33
2022-08-09T17:47:10.720Z,1.30
2022-08-09T17:52:22.087Z,1.63
2022-08-09T17:58:02.489Z,1.30
2022-08-09T18:02:58.215Z,1.52
2022-08-09T18:08:03.686Z,1.50
2022-08-09T18:13:39.643Z,1.33
2022-08-09T18:18:43.358Z,1.65
2022-08-09T18:24:11.440Z,1.42
2022-08-09T18:30:37.644Z,1.70
2022-08-09T18:34:39.120Z,1.50
2022-08-09T18:39:46.110Z,1.70
2022-08-09T18:44:51.380Z,1.98
2022-08-09T18:49:54.843Z,1.70
2022-08-09T18:55:04.180Z,1.83
2022-08-09T19:00:11.478Z,2.08
2022-08-09T19:05:48.796Z,1.60
2022-08-09T19:10:44.040Z,1.60
2022-08-09T19:15:47.241Z,1.58
2022-08-09T19:20:52.205Z,1.98
2022-08-09T19:26:01.955Z,1.95
2022-08-09T19:31:08.413Z,1.83
2022-08-09T19:36:13.339Z,2.10
2022-08-09T19:41:33.097Z,1.90
2022-08-09T19:46:50.775Z,1.98
2022-08-09T19:51:57.059Z,2.20
2022-08-09T19:57:00.104Z,2.35
2022-08-09T20:02:17.139Z,2.08
2022-08-09T20:07:33.875Z,2.38
2022-08-09T20:12:52.038Z,2.20
2022-08-09T20:17:55.118Z,2.63
2022-08-09T20:22:58.363Z,2.40
2022-08-09T20:28:02.501Z,2.35
2022-08-09T20:33:06.548Z,2.70
2022-08-09T20:38:21.509Z,2.77
2022-08-09T20:43:32.095Z,2.73
2022-08-09T20:48:38.068Z,2.87
2022-08-09T20:53:41.002Z,2.47
2022-08-09T20:58:44.481Z,2.70
2022-08-09T21:05:48.805Z,3.00
2022-08-09T21:09:14.370Z,2.73
2022-08-09T21:14:31.196Z,2.93
2022-08-09T21:20:18.716Z,2.90
2022-08-09T21:25:15.345Z,2.57
2022-08-09T21:30:19.442Z,3.30
2022-08-09T21:35:25.136Z,2.73
2022-08-09T21:40:32.666Z,2.70
2022-08-09T21:45:38.838Z,2.93
2022-08-09T21:50:46.598Z,3.20
2022-08-09T21:55:53.857Z,2.97
2022-08-09T22:00:56.551Z,3.10
2022-08-09T22:05:59.439Z,3.10
2022-08-09T22:12:05.414Z,3.10
2022-08-09T22:16:25.017Z,3.47
2022-08-09T22:21:49.959Z,2.93
2022-08-09T22:26:52.402Z,2.73
2022-08-09T22:31:57.525Z,2.73
2022-08-09T22:37:00.950Z,2.50
2022-08-09T22:42:06.111Z,2.90
2022-08-09T22:48:16.012Z,2.63
2022-08-09T22:52:46.984Z,2.93
2022-08-09T22:57:59.577Z,3.03
2022-08-09T23:03:03.184Z,3.30
2022-08-09T23:08:34.739Z,2.87
2022-08-09T23:13:37.953Z,3.33
2022-08-09T23:18:41.368Z,3.10
2022-08-09T23:23:44.054Z,2.80
2022-08-09T23:29:11.462Z,3.00
2022-08-09T23:34:14.191Z,2.77
2022-08-09T23:39:17.525Z,3.03
2022-08-09T23:44:20.566Z,3.60
2022-08-09T23:49:24.720Z,3.63
2022-08-09T23:54:27.842Z,3.43
2022-08-09T23:59:51.079Z,3.60
